Time;durP1;ratioP1;P1;durP2;ratioP2;P2;SDS_P1;SDS_P2;PMS_P1;PMS_P2;Temp;Humidity;BMP_temperature;BMP_pressure;BME280_temperature;BME280_humidity;BME280_pressure;Samples;Min_cycle;Max_cycle;Signal;HPM_P1;HPM_P2
2022/08/12 00:42:50;;;;;;;3.98;3.15;;;;;;;15.70;46.59;101655.64;1685163;84;20937;-75
2022/08/12 00:45:18;;;;;;;8.95;2.95;;;;;;;15.69;46.68;101656.53;1682315;84;20960;-75
2022/08/12 00:47:46;;;;;;;4.67;2.70;;;;;;;15.70;46.77;101649.12;1683972;84;20948;-75
2022/08/12 00:50:17;;;;;;;9.28;3.17;;;;;;;15.73;46.85;101649.92;1679307;84;20934;-75
2022/08/12 00:52:46;;;;;;;13.78;3.42;;;;;;;15.74;46.93;101652.08;1676710;84;20919;-75
2022/08/12 00:55:13;;;;;;;9.50;3.40;;;;;;;15.74;46.99;101654.69;1681405;83;20936;-75
2022/08/12 00:57:47;;;;;;;7.00;3.37;;;;;;;15.70;47.13;101652.59;1681370;84;20913;-75
2022/08/12 01:00:20;;;;;;;4.35;3.00;;;;;;;15.70;47.16;101651.29;1685793;84;20964;-75
2022/08/12 01:02:51;;;;;;;14.13;4.17;;;;;;;15.70;47.27;101651.29;1675914;84;21389;-75
2022/08/12 01:11:28;;;;;;;6.30;3.57;;;;;;;15.63;47.47;101648.84;1686752;84;21100;-75
2022/08/12 01:13:31;;;;;;;7.20;3.47;;;;;;;15.63;47.55;101651.00;1675502;84;26741;-75
2022/08/12 01:16:02;;;;;;;8.23;3.22;;;;;;;15.63;47.57;101651.00;1662930;84;21060;-75
2022/08/12 01:18:36;;;;;;;4.92;3.02;;;;;;;15.60;47.65;101652.36;1677463;84;21581;-75
2022/08/12 01:21:08;;;;;;;6.97;3.22;;;;;;;15.55;47.77;101654.20;1672670;84;21059;-75
2022/08/12 01:23:57;;;;;;;6.15;3.15;;;;;;;15.50;47.86;101651.69;1682983;84;21079;-75
2022/08/12 01:26:25;;;;;;;8.23;4.15;;;;;;;15.45;47.95;101644.40;1683680;84;21068;-75
2022/08/12 01:28:58;;;;;;;4.37;3.12;;;;;;;15.43;48.02;101642.27;1678158;83;21045;-76
2022/08/12 01:31:26;;;;;;;8.63;3.05;;;;;;;15.47;48.11;101646.98;1677138;84;20988;-75
2022/08/12 01:34:09;;;;;;;4.58;3.30;;;;;;;15.49;48.10;101650.41;1679712;84;21068;-75
2022/08/12 01:36:44;;;;;;;6.42;2.95;;;;;;;15.44;48.21;101648.34;1679596;84;21068;-75
2022/08/12 01:39:17;;;;;;;5.58;3.30;;;;;;;15.41;48.29;101644.48;1676382;84;21108;-75
2022/08/12 01:41:53;;;;;;;10.35;3.50;;;;;;;15.35;48.37;101642.86;1644666;85;21116;-75
2022/08/12 01:44:21;;;;;;;8.30;3.10;;;;;;;15.30;48.47;101640.78;1648493;85;21053;-76
2022/08/12 01:47:05;;;;;;;5.17;3.05;;;;;;;15.27;48.53;101644.75;1652933;85;21136;-76
2022/08/12 01:49:47;;;;;;;5.28;2.72;;;;;;;15.29;48.63;101647.33;1681143;84;21049;-75
2022/08/12 01:52:52;;;;;;;4.08;3.40;;;;;;;15.29;48.61;101649.94;1674119;84;21067;-75
2022/08/12 01:55:23;;;;;;;9.50;3.27;;;;;;;15.24;48.68;101648.27;1678380;84;21044;-75
2022/08/12 01:58:16;;;;;;;4.92;2.98;;;;;;;15.20;48.70;101642.70;1675772;84;21135;-75
2022/08/12 02:00:50;;;;;;;7.58;3.20;;;;;;;15.18;48.85;101645.78;1676298;84;21108;-76
2022/08/12 02:12:39;;;;;;;4.67;2.90;;;;;;;14.93;49.19;101643.23;1685268;84;21044;-75
2022/08/12 02:15:21;;;;;;;7.45;3.40;;;;;;;14.96;49.20;101643.17;1665083;85;20981;-75
2022/08/12 02:18:15;;;;;;;8.58;3.55;;;;;;;14.94;49.25;101647.55;1659724;85;21490;-76
2022/08/12 02:21:01;;;;;;;12.28;3.47;;;;;;;14.96;49.33;101651.43;1666543;84;21044;-75
2022/08/12 02:23:30;;;;;;;8.40;3.52;;;;;;;14.93;49.37;101652.78;1672566;84;21064;-74
2022/08/12 02:26:04;;;;;;;9.35;3.42;;;;;;;14.87;49.39;101651.14;1670529;85;20972;-75
2022/08/12 02:28:32;;;;;;;3.17;2.87;;;;;;;14.83;49.55;101656.84;1669030;85;21083;-75
2022/08/12 02:31:03;;;;;;;6.28;3.22;;;;;;;14.82;49.61;101659.48;1658970;85;21448;-75
2022/08/12 02:33:32;;;;;;;8.80;3.67;;;;;;;14.80;49.68;101658.20;1664149;85;20923;-75
2022/08/12 02:36:01;;;;;;;12.15;3.52;;;;;;;14.79;49.76;101660.83;1645063;86;20967;-75
2022/08/12 02:38:30;;;;;;;6.70;3.17;;;;;;;14.81;49.77;101656.45;1665631;84;20993;-75
2022/08/12 02:41:00;;;;;;;4.85;3.33;;;;;;;14.82;49.85;101653.83;1674706;85;20921;-75
2022/08/12 02:43:52;;;;;;;6.35;3.12;;;;;;;14.85;49.88;101651.61;1674270;85;20918;-75
2022/08/12 02:46:27;;;;;;;5.47;3.40;;;;;;;14.82;49.91;101645.16;1673755;85;20961;-75
2022/08/12 02:49:04;;;;;;;12.13;3.58;;;;;;;14.78;49.99;101646.09;1661384;85;20925;-75
2022/08/12 02:51:34;;;;;;;15.53;4.37;;;;;;;14.71;50.06;101646.64;1665864;85;20924;-75
2022/08/12 02:54:02;;;;;;;4.97;3.10;;;;;;;14.70;50.16;101638.84;1665384;85;20881;-75
2022/08/12 02:56:29;;;;;;;6.45;3.12;;;;;;;14.68;50.20;101638.88;1673138;85;21266;-75
2022/08/12 02:58:57;;;;;;;4.85;3.35;;;;;;;14.64;50.29;101641.55;1664659;85;20940;-75
2022/08/12 03:01:33;;;;;;;4.42;3.85;;;;;;;14.64;50.33;101643.72;1670004;85;21060;-75
2022/08/12 03:04:04;;;;;;;5.97;3.33;;;;;;;14.64;50.38;101646.76;1662109;85;21028;-75
2022/08/12 03:06:42;;;;;;;4.60;3.00;;;;;;;14.61;50.41;101642.46;1662881;85;21478;-75
2022/08/12 03:09:14;;;;;;;9.13;3.67;;;;;;;14.59;50.44;101642.92;1662621;85;21109;-75
2022/08/12 03:11:51;;;;;;;8.43;3.30;;;;;;;14.55;50.48;101645.19;1663531;84;21128;-75
2022/08/12 03:14:19;;;;;;;6.20;3.37;;;;;;;14.52;50.60;101643.50;1667197;85;21128;-75
2022/08/12 03:16:54;;;;;;;7.45;3.80;;;;;;;14.51;50.66;101648.28;1655559;85;21080;-75
2022/08/12 03:19:23;;;;;;;10.55;3.42;;;;;;;14.49;50.70;101647.89;1664952;85;21072;-75
2022/08/12 03:21:54;;;;;;;9.25;3.60;;;;;;;14.45;50.81;101650.13;1670378;85;21147;-75
2022/08/12 03:24:26;;;;;;;6.72;3.33;;;;;;;14.40;50.86;101651.46;1658152;85;21075;-76
2022/08/12 03:26:55;;;;;;;4.33;3.52;;;;;;;14.41;50.92;101649.72;1671355;85;21060;-75
2022/08/12 03:29:27;;;;;;;5.35;3.70;;;;;;;14.39;51.00;101649.73;1671842;85;21135;-75
2022/08/12 03:31:59;;;;;;;6.95;3.10;;;;;;;14.40;51.02;101646.70;1665606;85;21353;-75
2022/08/12 03:34:29;;;;;;;11.10;3.60;;;;;;;14.39;51.05;101647.58;1663188;85;21143;-75
2022/08/12 03:36:58;;;;;;;8.48;3.37;;;;;;;14.37;51.08;101654.11;1661728;85;21064;-75
2022/08/12 03:39:44;;;;;;;5.22;3.37;;;;;;;14.30;51.20;101656.38;1668116;85;21044;-75
2022/08/12 03:42:18;;;;;;;8.45;3.85;;;;;;;14.24;51.27;101652.12;1665615;85;21077;-75
2022/08/12 04:01:51;;;;;;;8.93;4.53;;;;;;;14.41;51.62;101636.30;1669826;85;21037;-75
2022/08/12 04:04:17;;;;;;;12.75;4.05;;;;;;;14.38;51.67;101639.36;1659870;85;21052;-76
2022/08/12 04:06:44;;;;;;;;;;;;;;;14.36;51.78;101634.61;1662070;85;21048;-76
2022/08/12 04:09:12;;;;;;;5.28;3.65;;;;;;;14.38;52.15;101632.41;1669613;85;20986;-75
2022/08/12 04:14:26;;;;;;;14.60;4.30;;;;;;;14.34;51.93;101632.04;1658062;85;21120;-75
2022/08/12 04:16:53;;;;;;;9.70;3.25;;;;;;;14.36;52.00;101632.88;1674131;85;21673;-75
2022/08/12 04:19:22;;;;;;;12.88;3.47;;;;;;;14.44;52.03;101638.86;1671942;84;21067;-75
2022/08/12 04:21:48;;;;;;;6.78;3.30;;;;;;;14.49;52.03;101632.28;1665386;85;21060;-75
2022/08/12 04:24:19;;;;;;;6.92;3.42;;;;;;;14.51;52.09;101635.72;1675397;84;21035;-75
2022/08/12 04:26:46;;;;;;;13.43;3.67;;;;;;;14.52;52.12;101636.99;1677985;84;21611;-75
2022/08/12 04:29:13;;;;;;;9.33;3.62;;;;;;;14.55;52.21;101637.38;1684542;84;21154;-75
2022/08/12 04:31:42;;;;;;;6.70;3.42;;;;;;;14.58;52.26;101641.20;1674846;84;21119;-75
2022/08/12 04:34:11;;;;;;;8.33;3.65;;;;;;;14.61;52.30;101641.60;1687232;84;21107;-75
2022/08/12 04:36:39;;;;;;;6.97;3.62;;;;;;;14.62;52.38;101641.58;1679425;84;21060;-75
2022/08/12 04:39:09;;;;;;;13.05;4.28;;;;;;;14.66;52.42;101644.99;1679467;84;21071;-75
2022/08/12 04:41:39;;;;;;;7.92;3.90;;;;;;;14.68;52.49;101651.03;1679326;84;21100;-75
2022/08/12 04:44:08;;;;;;;7.75;3.80;;;;;;;14.75;52.56;101648.75;1687377;84;21063;-75
2022/08/12 04:46:34;;;;;;;6.60;3.47;;;;;;;14.78;52.62;101648.25;1680875;83;21047;-76
2022/08/12 04:49:02;;;;;;;6.20;4.50;;;;;;;14.81;52.68;101648.20;1672887;84;21111;-76
2022/08/12 04:51:29;;;;;;;14.38;4.10;;;;;;;14.84;52.75;101649.89;1693531;84;21110;-76
2022/08/12 04:53:56;;;;;;;8.35;3.87;;;;;;;14.86;52.83;101649.42;1692591;83;21111;-76
2022/08/12 04:56:22;;;;;;;12.35;4.05;;;;;;;14.89;52.90;101659.34;1681464;84;21341;-76
2022/08/12 04:58:49;;;;;;;13.78;4.28;;;;;;;14.95;52.96;101657.52;1687158;84;25182;-76
2022/08/12 05:01:17;;;;;;;12.07;3.70;;;;;;;15.01;53.04;101670.44;1670934;84;21119;-76
2022/08/12 05:03:43;;;;;;;12.55;4.08;;;;;;;15.10;53.11;101663.30;1688744;84;21522;-76
2022/08/12 05:06:09;;;;;;;8.80;3.85;;;;;;;15.18;53.16;101663.16;1685804;84;21403;-76
2022/08/12 05:08:36;;;;;;;8.55;3.90;;;;;;;15.26;53.20;101656.50;1688944;84;21160;-76
2022/08/12 05:11:04;;;;;;;5.53;3.77;;;;;;;15.31;53.32;101663.35;1681116;84;21047;-76
2022/08/12 05:13:39;;;;;;;14.00;4.65;;;;;;;15.38;53.41;101661.48;1679900;84;21051;-76
2022/08/12 05:16:07;;;;;;;11.57;4.15;;;;;;;15.47;53.48;101663.48;1691782;84;21064;-76
2022/08/12 05:18:36;;;;;;;11.75;3.98;;;;;;;15.57;53.53;101668.55;1683947;84;21381;-76
2022/08/12 05:21:06;;;;;;;8.98;3.77;;;;;;;15.66;53.60;101664.42;1688005;84;21075;-76
2022/08/12 05:23:37;;;;;;;8.95;3.70;;;;;;;15.76;53.68;101665.51;1680424;84;21004;-76
2022/08/12 05:26:04;;;;;;;9.38;3.62;;;;;;;15.85;53.75;101664.46;1676917;84;21016;-76
2022/08/12 05:28:32;;;;;;;14.87;3.92;;;;;;;15.95;53.83;101663.81;1686085;84;21115;-76
2022/08/12 05:31:00;;;;;;;13.95;4.35;;;;;;;16.05;53.86;101678.38;1677534;84;21124;-76
2022/08/12 05:33:36;;;;;;;12.93;3.70;;;;;;;16.01;54.08;101671.52;1681040;84;21540;-76
2022/08/12 05:36:00;;;;;;;12.33;3.92;;;;;;;16.12;54.18;101683.41;1683837;84;21063;-76
2022/08/12 05:41:19;;;;;;;9.93;3.77;;;;;;;16.42;54.33;101680.56;1680835;83;21418;-76
2022/08/12 05:43:43;;;;;;;14.53;3.62;;;;;;;16.62;54.31;101677.48;1677632;84;21095;-76
2022/08/12 05:46:10;;;;;;;12.30;3.85;;;;;;;16.82;54.29;101677.86;1678550;83;21039;-76
2022/08/12 05:48:36;;;;;;;14.95;3.83;;;;;;;16.96;54.39;101674.91;1675703;83;21651;-76
2022/08/12 05:51:03;;;;;;;12.03;3.83;;;;;;;17.10;54.48;101674.10;1679543;84;21154;-76
2022/08/12 05:53:29;;;;;;;;;;;;;;;17.24;54.52;101680.70;1683940;83;21056;-76
2022/08/12 05:55:56;;;;;;;8.53;3.70;;;;;;;17.33;54.72;101680.45;1676953;84;20221;-76
2022/08/12 05:58:22;;;;;;;12.78;4.60;;;;;;;17.46;54.50;101677.46;1675602;84;21057;-76
2022/08/12 06:00:49;;;;;;;8.63;3.40;;;;;;;17.59;54.62;101670.14;1685358;83;21099;-76
2022/08/12 06:03:16;;;;;;;11.28;4.22;;;;;;;17.74;54.64;101670.16;1677391;84;21055;-76
2022/08/12 06:05:45;;;;;;;11.75;3.62;;;;;;;17.92;54.71;101667.45;1674743;83;21106;-76
2022/08/12 06:08:11;;;;;;;12.58;4.05;;;;;;;18.30;54.96;101671.05;1685768;84;21083;-76
2022/08/12 06:10:37;;;;;;;5.15;3.65;;;;;;;19.06;55.09;101662.00;1681797;83;20996;-76
2022/08/12 06:13:06;;;;;;;9.60;3.65;;;;;;;19.99;55.04;101672.16;1676036;83;21068;-76
2022/08/12 06:15:39;;;;;;;9.35;4.12;;;;;;;20.85;54.81;101668.25;1679090;83;21110;-76
2022/08/12 06:18:08;;;;;;;8.08;3.95;;;;;;;21.68;54.52;101680.38;1683697;83;21530;-76
2022/08/12 06:20:36;;;;;;;11.22;3.90;;;;;;;22.27;54.11;101685.98;1679357;83;21108;-76
2022/08/12 06:23:04;;;;;;;10.43;3.20;;;;;;;22.86;53.76;101678.72;1681226;83;20917;-76
2022/08/12 06:25:30;;;;;;;7.25;3.90;;;;;;;23.36;53.68;101678.27;1671862;83;20996;-76
2022/08/12 06:28:02;;;;;;;7.92;3.72;;;;;;;24.09;53.50;101674.28;1676775;83;20925;-77
2022/08/12 06:30:32;;;;;;;6.37;3.80;;;;;;;24.68;53.06;101674.48;1677221;83;20877;-76
2022/08/12 06:32:57;;;;;;;17.92;3.65;;;;;;;25.25;52.76;101671.50;1675543;83;20912;-76
2022/08/12 06:35:26;;;;;;;14.58;4.17;;;;;;;26.10;52.48;101671.90;1679231;83;20948;-78
2022/08/12 06:37:56;;;;;;;15.78;3.77;;;;;;;26.99;51.93;101653.64;1686021;83;20893;-78
2022/08/12 06:43:07;;;;;;;17.98;3.80;;;;;;;28.71;50.85;101655.74;1684742;83;21045;-79
2022/08/12 06:45:44;;;;;;;6.80;3.72;;;;;;;29.55;50.23;101650.09;1681768;84;21031;-79
2022/08/12 06:48:09;;;;;;;10.13;3.10;;;;;;;30.27;49.55;101652.23;1675766;84;21071;-79
2022/08/12 06:50:38;;;;;;;10.38;3.60;;;;;;;30.88;48.82;101643.94;1672190;84;21024;-78
2022/08/12 06:53:05;;;;;;;7.60;3.52;;;;;;;31.45;48.31;101639.87;1662393;85;21062;-79
2022/08/12 06:55:33;;;;;;;11.93;3.37;;;;;;;32.14;47.60;101643.08;1678750;83;21060;-79
2022/08/12 06:58:01;;;;;;;14.20;3.83;;;;;;;32.72;47.03;101653.30;1673452;84;21111;-79
2022/08/12 07:00:36;;;;;;;8.58;3.10;;;;;;;33.31;46.17;101658.87;1672161;85;20989;-79
2022/08/12 07:03:03;;;;;;;8.20;2.95;;;;;;;33.81;45.48;101660.68;1674583;83;21123;-79
2022/08/12 07:05:31;;;;;;;9.80;2.95;;;;;;;34.09;44.80;101655.28;1680298;83;21041;-79
2022/08/12 07:08:05;;;;;;;9.70;3.33;;;;;;;34.15;44.05;101658.70;1674976;83;21131;-78
2022/08/12 07:10:33;;;;;;;8.18;3.40;;;;;;;33.37;43.65;101660.12;1671446;83;21047;-79
2022/08/12 07:13:01;;;;;;;5.97;3.72;;;;;;;32.88;43.59;101661.59;1675098;83;21067;-79
2022/08/12 07:15:30;;;;;;;11.12;3.08;;;;;;;33.49;42.96;101663.80;1678823;84;21052;-79
2022/08/12 07:18:06;;;;;;;11.43;3.37;;;;;;;34.12;42.27;101664.37;1680822;84;21401;-79
2022/08/12 07:20:36;;;;;;;13.48;3.58;;;;;;;34.76;41.45;101661.42;1679317;84;20968;-79
2022/08/12 07:23:05;;;;;;;13.00;3.70;;;;;;;35.41;40.64;101655.11;1682720;84;20889;-79
2022/08/12 07:25:34;;;;;;;11.75;3.12;;;;;;;35.98;39.84;101655.31;1685876;83;21532;-79
2022/08/12 07:28:14;;;;;;;12.90;3.25;;;;;;;36.59;39.08;101657.22;1688448;83;20933;-79
2022/08/12 07:30:43;;;;;;;9.73;3.08;;;;;;;36.75;38.60;101655.39;1676832;83;21389;-79
2022/08/12 07:33:12;;;;;;;14.90;2.70;;;;;;;37.26;37.75;101655.11;1685691;84;21008;-79
2022/08/12 07:35:44;;;;;;;9.83;2.58;;;;;;;37.54;36.98;101654.97;1684281;84;21508;-78
2022/08/12 07:38:32;;;;;;;9.10;2.40;;;;;;;37.53;36.28;101654.64;1674653;84;21519;-78
2022/08/12 07:41:18;;;;;;;4.58;2.10;;;;;;;37.11;35.89;101651.75;1686259;84;21154;-78
2022/08/12 07:43:50;;;;;;;10.82;2.42;;;;;;;36.64;35.58;101643.58;1684558;84;21532;-78
2022/08/12 07:46:24;;;;;;;11.75;2.30;;;;;;;36.38;35.20;101649.17;1677334;83;21064;-78
2022/08/12 07:48:58;;;;;;;4.47;2.25;;;;;;;35.98;34.69;101645.04;1676010;83;21592;-78
2022/08/12 07:51:26;;;;;;;4.72;2.00;;;;;;;35.68;34.39;101645.97;1683978;84;21559;-78
2022/08/12 07:53:56;;;;;;;4.30;1.62;;;;;;;35.40;33.58;101653.42;1684594;84;21044;-78
2022/08/12 07:56:22;;;;;;;5.12;1.62;;;;;;;35.04;33.49;101642.47;1679185;83;21039;-78
2022/08/12 07:58:49;;;;;;;1.75;1.62;;;;;;;34.44;33.33;101651.26;1667372;83;21551;-79
2022/08/12 08:01:20;;;;;;;;;;;;;;;33.86;33.15;101650.34;1676575;83;21034;-78
2022/08/12 08:06:43;;;;;;;5.30;1.82;;;;;;;32.78;33.13;101654.06;1685194;83;21522;-77
2022/08/12 08:09:06;;;;;;;6.30;1.80;;;;;;;32.32;32.93;101656.13;1680960;84;21301;-78
2022/08/12 08:14:17;;;;;;;2.62;1.50;;;;;;;31.56;32.57;101645.12;1678508;84;21504;-78
2022/08/12 08:16:45;;;;;;;8.00;2.50;;;;;;;31.69;32.59;101650.27;1653004;84;21730;-77
2022/08/12 08:19:17;;;;;;;4.97;1.65;;;;;;;31.81;32.26;101645.62;1669692;83;21575;-78
2022/08/12 08:21:40;;;;;;;5.25;1.80;;;;;;;32.39;32.14;101651.91;1673435;83;21706;-77
2022/08/12 08:24:15;;;;;;;12.47;1.85;;;;;;;32.88;31.75;101641.50;1656295;84;21584;-78
2022/08/12 08:26:49;;;;;;;7.08;1.80;;;;;;;32.89;31.69;101646.36;1674666;84;21053;-77
2022/08/12 08:29:16;;;;;;;4.00;1.50;;;;;;;33.68;31.52;101650.80;1677454;84;21540;-77
2022/08/12 08:31:45;;;;;;;7.53;1.67;;;;;;;33.59;31.29;101646.83;1721421;82;21526;-77
2022/08/12 08:34:13;;;;;;;3.37;1.82;;;;;;;34.55;31.19;101646.14;1711157;82;20912;-78
2022/08/12 08:36:41;;;;;;;3.08;1.77;;;;;;;34.86;30.64;101649.23;1718214;82;21805;-79
2022/08/12 08:39:09;;;;;;;6.05;1.87;;;;;;;34.52;30.79;101647.80;1713038;82;21434;-78
2022/08/12 08:44:22;;;;;;;3.83;1.45;;;;;;;35.11;30.07;101653.77;1712218;81;21045;-78
2022/08/12 08:46:49;;;;;;;7.08;1.80;;;;;;;34.17;30.46;101645.97;1714595;81;21058;-78
2022/08/12 08:49:17;;;;;;;4.60;1.70;;;;;;;34.46;30.22;101644.39;1713397;81;21665;-78
2022/08/12 08:51:44;;;;;;;3.70;1.72;;;;;;;34.48;30.06;101637.86;1715909;81;21502;-78
2022/08/12 08:54:12;;;;;;;3.25;1.85;;;;;;;35.02;29.96;101642.63;1711231;81;21577;-75
2022/08/12 08:56:43;;;;;;;7.53;1.85;;;;;;;36.31;29.11;101640.07;1711192;81;21119;-75
2022/08/12 08:59:13;;;;;;;6.75;1.75;;;;;;;37.17;28.76;101635.38;1719348;81;21349;-77
2022/08/12 09:01:41;;;;;;;4.15;1.92;;;;;;;37.45;28.52;101633.09;1721622;82;21042;-76
2022/08/12 09:04:10;;;;;;;6.70;1.55;;;;;;;36.49;28.73;101629.09;1714587;81;21485;-75
2022/08/12 09:06:40;;;;;;;8.40;1.20;;;;;;;35.49;28.87;101624.20;1715252;81;21538;-75
2022/08/12 09:09:10;;;;;;;5.05;1.10;;;;;;;34.75;29.10;101630.18;1707771;81;21046;-75
2022/08/12 09:14:22;;;;;;;2.98;1.07;;;;;;;33.15;28.99;101633.17;1710961;81;21039;-76
2022/08/12 09:16:52;;;;;;;5.55;1.20;;;;;;;32.30;29.02;101637.17;1713925;81;21033;-77
2022/08/12 09:19:17;;;;;;;5.87;1.05;;;;;;;31.70;29.13;101635.06;1712519;81;21108;-76
2022/08/12 09:21:48;;;;;;;5.70;1.20;;;;;;;31.29;29.15;101631.50;1709649;81;21645;-77
2022/08/12 09:24:18;;;;;;;1.42;0.90;;;;;;;30.99;29.21;101635.49;1710159;81;21086;-76
2022/08/12 09:26:45;;;;;;;4.55;1.07;;;;;;;30.57;29.18;101623.02;1709645;81;21582;-76
2022/08/12 09:29:13;;;;;;;4.35;1.25;;;;;;;30.04;29.26;101629.30;1710842;81;21796;-76
2022/08/12 09:31:40;;;;;;;2.10;0.98;;;;;;;29.62;29.43;101636.64;1707867;81;21145;-75
2022/08/12 09:34:09;;;;;;;3.92;1.10;;;;;;;29.21;29.48;101630.55;1712443;81;21079;-76
2022/08/12 09:36:39;;;;;;;6.67;1.47;;;;;;;28.82;29.68;101627.85;1708547;81;21273;-75
2022/08/12 09:39:07;;;;;;;2.85;1.05;;;;;;;28.57;29.84;101624.03;1713272;81;21034;-77
2022/08/12 09:41:41;;;;;;;7.80;1.75;;;;;;;28.43;30.01;101621.55;1714122;82;21058;-78
2022/08/12 09:46:53;;;;;;;2.58;1.05;;;;;;;28.16;30.85;101613.78;1712283;81;21054;-77
2022/08/12 09:49:25;;;;;;;1.72;1.47;;;;;;;27.88;30.65;101609.67;1710794;81;21589;-76
2022/08/12 09:51:48;;;;;;;3.67;1.40;;;;;;;27.81;31.04;101605.28;1704340;81;21062;-76
2022/08/12 09:54:16;;;;;;;5.00;1.10;;;;;;;27.73;30.97;101603.66;1707145;81;21535;-76
2022/08/12 09:56:44;;;;;;;8.53;1.20;;;;;;;27.71;31.03;101600.26;1713212;81;21039;-76
2022/08/12 09:59:11;;;;;;;3.33;1.00;;;;;;;27.74;31.09;101600.03;1709149;81;21071;-76
2022/08/12 10:01:39;;;;;;;4.67;1.10;;;;;;;27.77;31.21;101601.62;1707578;81;21476;-76
2022/08/12 10:04:09;;;;;;;2.25;1.50;;;;;;;27.84;31.39;101596.23;1711747;81;21096;-76
2022/08/12 10:06:41;;;;;;;2.52;1.15;;;;;;;27.95;31.41;101588.32;1715208;81;21114;-77
2022/08/12 10:09:09;;;;;;;4.58;1.22;;;;;;;27.99;31.52;101591.97;1716595;82;21157;-76
2022/08/12 10:14:22;;;;;;;2.50;1.15;;;;;;;28.06;31.82;101588.86;1714152;81;21098;-77
2022/08/12 10:16:48;;;;;;;;;;;;;;;28.14;31.95;101579.80;1716937;81;21159;-82
2022/08/12 10:19:17;;;;;;;3.67;1.57;;;;;;;28.24;31.94;101580.37;1715044;81;20185;-81
2022/08/12 10:21:43;;;;;;;4.28;1.25;;;;;;;28.26;31.96;101573.12;1707766;82;21050;-80
2022/08/12 10:24:18;;;;;;;6.75;1.00;;;;;;;28.32;32.00;101571.33;1712395;81;20943;-80
2022/08/12 10:29:38;;;;;;;3.57;1.20;;;;;;;28.23;32.21;101577.34;1708489;82;21086;-80
2022/08/12 10:32:11;;;;;;;2.95;1.10;;;;;;;28.08;32.28;101570.47;1708560;83;21039;-80
2022/08/12 10:34:41;;;;;;;4.87;1.37;;;;;;;27.99;32.40;101572.52;1709445;81;20983;-78
2022/08/12 10:37:08;;;;;;;7.08;1.50;;;;;;;27.94;32.49;101565.35;1706408;81;21310;-78
2022/08/12 10:39:38;;;;;;;2.87;1.15;;;;;;;27.99;32.55;101564.53;1716818;82;21097;-78
2022/08/12 10:45:06;;;;;;;2.17;1.10;;;;;;;28.07;32.70;101557.31;1712990;81;21062;-78
2022/08/12 10:47:35;;;;;;;2.00;1.32;;;;;;;28.13;32.76;101552.84;1711636;83;21022;-78
2022/08/12 10:50:07;;;;;;;6.20;1.20;;;;;;;28.18;32.90;101562.17;1714435;82;22210;-78
2022/08/12 10:52:38;;;;;;;7.10;1.27;;;;;;;28.12;32.91;101561.78;1714226;82;21102;-78
2022/08/12 10:55:02;;;;;;;3.08;1.10;;;;;;;28.10;33.02;101553.92;1710687;82;22308;-78
2022/08/12 10:57:28;;;;;;;4.42;1.10;;;;;;;28.06;33.06;101551.16;1711568;82;21062;-80
2022/08/12 10:59:56;;;;;;;;;;;;;;;28.09;33.16;101547.38;1717714;82;21110;-81
2022/08/12 11:02:27;;;;;;;2.67;1.25;;;;;;;28.17;33.48;101546.33;1713009;82;20132;-79
2022/08/12 11:04:56;;;;;;;3.75;1.15;;;;;;;28.23;33.30;101545.91;1714866;81;21070;-78
2022/08/12 11:07:20;;;;;;;4.15;1.30;;;;;;;28.21;33.31;101538.03;1715497;81;21070;-76
2022/08/12 11:09:48;;;;;;;3.12;1.50;;;;;;;28.12;33.47;101532.53;1713055;82;21098;-78
2022/08/12 11:12:16;;;;;;;6.80;1.50;;;;;;;28.06;33.47;101527.22;1713210;81;21059;-77
2022/08/12 11:14:45;;;;;;;5.60;1.32;;;;;;;28.12;33.57;101526.73;1714128;81;21121;-77
2022/08/12 11:17:13;;;;;;;4.17;1.70;;;;;;;28.13;33.57;101529.75;1717315;81;21102;-78
2022/08/12 11:19:42;;;;;;;3.92;1.60;;;;;;;28.09;33.60;101529.62;1702448;81;21034;-77
2022/08/12 11:22:10;;;;;;;2.65;1.30;;;;;;;28.04;33.68;101526.97;1715911;81;21097;-78
2022/08/12 11:24:38;;;;;;;2.05;1.22;;;;;;;28.05;33.82;101522.86;1715219;81;21057;-78
2022/08/12 11:27:07;;;;;;;6.62;1.40;;;;;;;28.10;33.81;101519.34;1712531;81;20998;-78
2022/08/12 11:29:35;;;;;;;1.98;1.20;;;;;;;28.09;33.82;101517.65;1717282;81;21404;-77
2022/08/12 11:32:02;;;;;;;2.98;1.40;;;;;;;28.12;33.92;101517.42;1707959;81;22246;-78
2022/08/12 11:34:29;;;;;;;3.02;1.40;;;;;;;28.12;33.99;101517.91;1709620;81;21045;-81
2022/08/12 11:37:02;;;;;;;5.47;1.30;;;;;;;28.13;34.06;101509.81;1708365;81;20991;-81
2022/08/12 11:39:28;;;;;;;4.00;1.40;;;;;;;28.16;34.10;101508.73;1707358;81;21502;-81
2022/08/12 11:41:54;;;;;;;3.25;1.40;;;;;;;28.18;34.14;101514.78;1709363;81;21322;-81
2022/08/12 11:44:21;;;;;;;2.72;1.30;;;;;;;28.24;34.16;101523.17;1710738;81;21083;-78
2022/08/12 11:46:48;;;;;;;3.20;1.40;;;;;;;28.29;34.21;101510.38;1713430;81;21054;-78
2022/08/12 11:49:14;;;;;;;;;;;;;;;28.34;34.28;101502.05;1713401;81;21059;-78
2022/08/12 11:51:41;;;;;;;2.92;1.45;;;;;;;28.44;34.30;101508.36;1706202;81;21165;-78
2022/08/12 11:54:07;;;;;;;6.42;1.77;;;;;;;28.49;34.36;101505.34;1711616;83;21090;-78
2022/08/12 11:56:34;;;;;;;2.98;1.60;;;;;;;28.53;34.33;101492.16;1709795;81;21063;-81
2022/08/12 12:01:38;;;;;;;1.60;1.30;;;;;;;28.61;34.43;101490.58;1786980;77;22057;-80
2022/08/12 12:04:06;;;;;;;3.50;1.62;;;;;;;28.57;34.43;101496.28;1750580;81;20961;-77
2022/08/12 12:06:32;;;;;;;2.58;1.70;;;;;;;28.55;34.51;101491.56;1748099;80;25302;-77
2022/08/12 12:08:59;;;;;;;5.20;1.55;;;;;;;28.60;34.56;101488.88;1718407;81;610785;-78
2022/08/12 12:11:25;;;;;;;2.10;1.50;;;;;;;28.71;34.60;101480.54;1654026;85;20956;-78
2022/08/12 12:13:52;;;;;;;8.88;1.62;;;;;;;28.82;34.56;101487.23;1646319;85;20948;-78
2022/08/12 12:16:19;;;;;;;5.05;2.17;;;;;;;28.88;34.66;101471.63;1636770;86;20976;-79
2022/08/12 12:18:45;;;;;;;7.78;1.50;;;;;;;29.01;34.68;101479.48;1631499;86;20952;-79
2022/08/12 12:21:12;;;;;;;5.08;1.90;;;;;;;29.12;34.68;101471.93;1637432;86;27055;-79
2022/08/12 12:23:39;;;;;;;5.75;1.72;;;;;;;29.24;34.76;101469.61;1634049;86;20989;-78
2022/08/12 12:26:06;;;;;;;2.98;2.00;;;;;;;29.35;34.64;101471.41;1628085;86;20945;-78
2022/08/12 12:28:33;;;;;;;;;;;;;;;29.32;34.50;101459.18;1637014;86;20960;-77
2022/08/12 12:31:01;;;;;;;4.47;1.75;;;;;;;29.16;34.55;101459.58;1630729;86;20102;-77
2022/08/12 12:33:27;;;;;;;2.58;1.60;;;;;;;29.19;34.66;101451.34;1636210;86;20940;-77
2022/08/12 12:35:54;;;;;;;5.17;1.57;;;;;;;29.40;34.71;101452.74;1630951;86;20984;-77
2022/08/12 12:38:20;;;;;;;2.70;1.70;;;;;;;29.56;34.67;101450.55;1632048;86;20988;-77
2022/08/12 12:40:48;;;;;;;8.50;2.05;;;;;;;29.53;34.59;101445.47;1638866;86;20968;-77
2022/08/12 12:43:16;;;;;;;2.80;1.77;;;;;;;29.53;34.55;101458.80;1632532;86;20973;-77
2022/08/12 12:45:44;;;;;;;2.37;1.42;;;;;;;29.40;34.56;101447.41;1643172;86;21835;-79
2022/08/12 12:48:13;;;;;;;4.90;1.60;;;;;;;29.31;34.61;101454.34;1636801;86;21477;-78
2022/08/12 12:51:14;;;;;;;4.35;1.90;;;;;;;29.14;34.59;101453.52;1654808;84;20976;-78
2022/08/12 12:53:22;;;;;;;4.03;1.95;;;;;;;28.99;34.63;101460.11;1626252;86;20985;-77
2022/08/12 12:55:49;;;;;;;5.78;1.70;;;;;;;28.88;34.65;101458.80;1637376;86;20964;-77
2022/08/12 12:58:16;;;;;;;2.90;1.80;;;;;;;28.82;34.66;101457.95;1635993;83;20985;-77
2022/08/12 13:00:44;;;;;;;8.90;1.82;;;;;;;28.74;34.70;101455.02;1639914;85;21005;-77
2022/08/12 13:03:12;;;;;;;8.93;2.20;;;;;;;28.66;34.71;101463.11;1642106;85;20909;-77
2022/08/12 13:05:41;;;;;;;5.67;1.87;;;;;;;28.61;34.73;101461.78;1643465;85;20952;-78
2022/08/12 13:08:26;;;;;;;4.00;1.60;;;;;;;28.58;34.82;101455.40;1662026;84;20985;-78
2022/08/12 13:10:54;;;;;;;45.63;4.20;;;;;;;28.60;34.87;101457.42;1656474;83;20993;-78
2022/08/12 13:13:21;;;;;;;3.08;1.82;;;;;;;28.61;34.90;101450.65;1642264;85;20979;-78
2022/08/12 13:15:49;;;;;;;3.50;1.90;;;;;;;28.61;34.94;101452.46;1659864;84;20976;-78
2022/08/12 13:18:17;;;;;;;4.92;2.00;;;;;;;28.60;34.95;101450.28;1592580;87;20933;-78
2022/08/12 13:20:47;;;;;;;4.75;2.10;;;;;;;28.59;35.01;101438.46;1630684;86;21109;-78
2022/08/12 13:23:19;;;;;;;3.27;1.85;;;;;;;28.52;35.04;101443.90;1651597;84;21115;-78